Time;durP1;ratioP1;P1;durP2;ratioP2;P2;SDS_P1;SDS_P2;PMS_P1;PMS_P2;Temp;Humidity;BMP_temperature;BMP_pressure;BME280_temperature;BME280_humidity;BME280_pressure;Samples;Min_cycle;Max_cycle;Signal;HPM_P1;HPM_P2
2022/03/23 00:01:14;;;;;;;19.95;15.43;;;18.30;51.70;;;;;;4967504;28;99421;-72
2022/03/23 00:03:40;;;;;;;18.48;15.40;;;18.30;51.70;;;;;;4968364;28;99639;-72
2022/03/23 00:06:06;;;;;;;21.63;16.38;;;18.30;51.70;;;;;;4968396;28;98490;-72
2022/03/23 00:08:32;;;;;;;18.55;15.75;;;18.30;51.60;;;;;;4966945;28;100802;-72
2022/03/23 00:10:57;;;;;;;19.98;15.70;;;18.30;51.70;;;;;;4968085;28;98901;-71
2022/03/23 00:13:23;;;;;;;20.88;15.50;;;18.30;51.70;;;;;;4967161;28;99718;-72
2022/03/23 00:15:49;;;;;;;21.45;15.90;;;18.30;51.60;;;;;;4968458;28;99421;-72
2022/03/23 00:18:15;;;;;;;18.98;15.20;;;18.30;51.60;;;;;;4966646;28;99273;-73
2022/03/23 00:20:41;;;;;;;19.63;15.70;;;18.30;51.60;;;;;;4968156;28;103896;-72
2022/03/23 00:23:09;;;;;;;20.67;14.60;;;18.30;51.50;;;;;;4969044;28;98554;-72
2022/03/23 00:25:36;;;;;;;18.70;15.00;;;18.30;51.50;;;;;;4972591;28;98540;-72
2022/03/23 00:28:03;;;;;;;19.92;15.68;;;18.30;51.50;;;;;;4969265;28;99032;-73
2022/03/23 00:30:29;;;;;;;19.92;15.45;;;18.30;51.50;;;;;;4967480;28;100793;-73
2022/03/23 00:32:55;;;;;;;20.42;15.10;;;18.30;51.40;;;;;;4967140;28;98655;-73
2022/03/23 00:35:22;;;;;;;19.05;14.80;;;18.30;51.40;;;;;;4967376;28;98645;-73
2022/03/23 00:37:49;;;;;;;19.20;15.50;;;18.20;51.30;;;;;;4966672;28;100332;-73
2022/03/23 00:40:14;;;;;;;18.77;15.52;;;18.30;51.40;;;;;;4967124;28;100665;-73
2022/03/23 00:42:40;;;;;;;18.52;14.75;;;18.20;51.40;;;;;;4967606;28;98640;-73
2022/03/23 00:45:07;;;;;;;21.38;15.68;;;18.20;51.30;;;;;;4967439;28;98695;-73
2022/03/23 00:47:34;;;;;;;18.67;14.95;;;18.20;51.30;;;;;;4967253;28;99706;-73
2022/03/23 00:50:00;;;;;;;19.92;15.88;;;18.20;51.20;;;;;;4966284;28;100532;-73
2022/03/23 00:52:25;;;;;;;17.38;14.75;;;18.20;51.20;;;;;;4966950;28;99101;-72
2022/03/23 00:54:51;;;;;;;20.05;15.13;;;18.20;51.20;;;;;;4967475;28;98151;-73
2022/03/23 00:57:17;;;;;;;18.80;15.57;;;18.20;51.20;;;;;;4967062;28;100038;-73
2022/03/23 00:59:42;;;;;;;20.20;16.20;;;18.10;51.20;;;;;;4966271;28;98971;-72
2022/03/23 01:02:10;;;;;;;19.98;15.50;;;18.20;51.20;;;;;;4966627;28;100194;-72
2022/03/23 01:04:36;;;;;;;20.52;15.18;;;18.10;51.10;;;;;;4967980;28;98951;-73
2022/03/23 01:07:02;;;;;;;19.50;15.15;;;18.10;51.00;;;;;;4965708;28;100157;-72
2022/03/23 01:09:27;;;;;;;19.17;14.77;;;18.10;51.00;;;;;;4966453;28;100443;-72
2022/03/23 01:11:54;;;;;;;19.98;15.48;;;18.10;51.20;;;;;;4966338;28;99060;-72
2022/03/23 01:14:24;;;;;;;19.08;16.00;;;18.10;51.00;;;;;;4966266;28;98708;-72
2022/03/23 01:16:50;;;;;;;19.30;15.95;;;18.10;51.00;;;;;;4966219;28;99277;-72
2022/03/23 01:19:17;;;;;;;17.35;14.68;;;18.10;51.00;;;;;;4964434;28;100120;-73
2022/03/23 01:21:44;;;;;;;18.05;15.45;;;18.10;51.00;;;;;;4967021;28;99184;-73
2022/03/23 01:24:10;;;;;;;19.73;15.00;;;18.10;51.00;;;;;;4967012;28;98800;-73
2022/03/23 01:26:36;;;;;;;19.10;15.93;;;18.10;50.90;;;;;;4965870;28;101491;-73
2022/03/23 01:29:03;;;;;;;19.23;15.40;;;18.10;51.00;;;;;;4966068;28;99940;-72
2022/03/23 01:31:29;;;;;;;19.17;15.48;;;18.10;50.90;;;;;;4948817;28;98794;-73
2022/03/23 01:33:59;;;;;;;20.00;15.20;;;18.10;51.00;;;;;;4966606;28;99279;-73
2022/03/23 01:36:27;;;;;;;19.38;16.33;;;18.10;50.90;;;;;;4965617;28;101073;-72
2022/03/23 01:38:53;;;;;;;19.90;16.15;;;18.10;50.80;;;;;;4966466;28;98951;-72
2022/03/23 01:41:19;;;;;;;18.50;15.60;;;18.10;50.90;;;;;;4965446;28;98634;-73
2022/03/23 01:43:46;;;;;;;18.95;15.95;;;18.10;50.80;;;;;;4967559;28;97847;-72
2022/03/23 01:46:12;;;;;;;18.70;15.35;;;18.10;50.80;;;;;;4965792;28;99278;-73
2022/03/23 01:48:38;;;;;;;18.67;15.35;;;18.10;50.80;;;;;;4965842;28;100399;-73
2022/03/23 01:51:03;;;;;;;18.35;15.13;;;18.10;50.80;;;;;;4965781;28;99610;-73
2022/03/23 01:53:29;;;;;;;20.15;15.88;;;18.10;50.80;;;;;;4966576;28;99170;-73
2022/03/23 01:55:55;;;;;;;19.40;15.23;;;18.00;50.70;;;;;;4967495;28;108112;-72
2022/03/23 01:58:21;;;;;;;18.30;15.68;;;18.00;50.70;;;;;;4965985;28;99958;-72
2022/03/23 02:00:47;;;;;;;19.42;16.13;;;18.00;50.70;;;;;;4966187;28;99082;-73
2022/03/23 02:03:13;;;;;;;18.15;15.85;;;18.00;50.70;;;;;;4966357;28;99118;-72
2022/03/23 02:05:38;;;;;;;19.63;15.10;;;18.00;50.70;;;;;;4966012;28;99156;-72
2022/03/23 02:08:05;;;;;;;20.50;15.30;;;18.00;50.60;;;;;;4966648;28;99466;-72
2022/03/23 02:10:31;;;;;;;20.40;16.75;;;18.00;50.50;;;;;;4965847;28;98692;-72
2022/03/23 02:12:56;;;;;;;20.25;16.05;;;18.00;50.50;;;;;;4967765;28;98920;-72
2022/03/23 02:15:25;;;;;;;18.73;16.23;;;18.00;50.50;;;;;;4968834;28;99876;-73
2022/03/23 02:17:53;;;;;;;21.90;15.77;;;18.00;50.50;;;;;;4969162;28;100730;-72
2022/03/23 02:20:19;;;;;;;19.77;16.33;;;18.00;50.50;;;;;;4968958;28;99979;-73
2022/03/23 02:22:46;;;;;;;18.90;16.25;;;18.00;50.50;;;;;;4969362;28;99158;-73
2022/03/23 02:25:13;;;;;;;22.98;16.27;;;18.00;50.40;;;;;;4969120;28;101305;-73
2022/03/23 02:27:40;;;;;;;20.30;16.23;;;18.00;50.40;;;;;;4968822;28;99860;-73
2022/03/23 02:30:08;;;;;;;18.42;15.48;;;18.00;50.40;;;;;;4968805;28;99158;-73
2022/03/23 02:32:34;;;;;;;20.45;15.93;;;18.00;50.40;;;;;;4968928;28;97849;-72
2022/03/23 02:35:00;;;;;;;20.17;16.30;;;17.90;50.30;;;;;;4968331;28;105907;-72
2022/03/23 02:37:26;;;;;;;19.00;16.00;;;18.00;50.40;;;;;;4968479;28;100015;-73
2022/03/23 02:39:52;;;;;;;19.80;16.05;;;17.90;50.40;;;;;;4969635;28;99297;-73
2022/03/23 02:42:19;;;;;;;17.98;15.63;;;17.90;50.30;;;;;;4969260;28;99118;-73
2022/03/23 02:44:44;;;;;;;20.45;16.30;;;17.90;50.20;;;;;;4969280;28;99229;-74
2022/03/23 02:47:10;;;;;;;19.65;16.20;;;17.90;50.20;;;;;;4968787;28;99344;-73
2022/03/23 02:49:36;;;;;;;18.88;16.65;;;17.90;50.20;;;;;;4967771;28;98680;-72
2022/03/23 02:52:02;;;;;;;19.33;16.17;;;17.90;50.20;;;;;;4970498;28;98923;-73
2022/03/23 03:03:28;;;;;;;19.13;16.35;;;17.80;50.00;;;;;;4969505;28;99045;-73
2022/03/23 03:05:54;;;;;;;21.85;17.15;;;17.80;50.10;;;;;;4968197;28;112416;-73
2022/03/23 03:11:04;;;;;;;19.05;16.23;;;17.80;50.00;;;;;;4969164;28;99065;-73
2022/03/23 03:13:30;;;;;;;18.83;15.85;;;17.80;50.00;;;;;;4968587;28;99119;-72
2022/03/23 03:16:02;;;;;;;21.00;16.90;;;17.80;50.00;;;;;;4967405;28;99028;-73
2022/03/23 03:18:31;;;;;;;19.17;17.00;;;17.80;50.00;;;;;;4967336;28;99183;-72
2022/03/23 03:20:57;;;;;;;20.42;16.40;;;17.80;50.00;;;;;;4967629;28;99177;-69
2022/03/23 03:23:23;;;;;;;20.67;16.85;;;17.80;50.00;;;;;;4967750;28;98287;-71
2022/03/23 03:25:49;;;;;;;21.15;16.83;;;17.80;50.00;;;;;;4968061;28;100260;-71
2022/03/23 03:28:15;;;;;;;19.80;17.17;;;17.80;49.90;;;;;;4967612;28;100447;-69
2022/03/23 03:30:42;;;;;;;19.95;16.70;;;17.80;50.00;;;;;;4966651;28;99876;-70
2022/03/23 03:33:07;;;;;;;19.75;16.95;;;17.80;49.90;;;;;;4967942;28;99147;-70
2022/03/23 03:35:33;;;;;;;21.08;17.05;;;17.80;50.00;;;;;;4967232;28;103887;-69
2022/03/23 03:37:59;;;;;;;20.98;17.88;;;17.70;49.90;;;;;;4967878;28;98710;-71
2022/03/23 03:40:25;;;;;;;19.92;17.13;;;17.80;49.90;;;;;;4967448;28;99009;-70
2022/03/23 03:42:50;;;;;;;21.52;17.75;;;17.80;50.00;;;;;;4968099;28;98623;-70
2022/03/23 03:45:16;;;;;;;20.15;17.13;;;17.80;49.90;;;;;;4967250;28;100140;-70
2022/03/23 03:47:41;;;;;;;21.23;17.67;;;17.80;49.90;;;;;;4965911;28;108583;-71
2022/03/23 03:50:08;;;;;;;21.02;17.85;;;17.70;49.80;;;;;;4968672;28;99120;-71
2022/03/23 03:52:34;;;;;;;20.60;17.42;;;17.70;49.80;;;;;;4968076;28;99103;-70
2022/03/23 03:54:59;;;;;;;19.85;16.67;;;17.70;49.80;;;;;;4966977;28;112353;-70
2022/03/23 03:57:25;;;;;;;20.70;16.85;;;17.70;49.80;;;;;;4967731;28;99608;-70
2022/03/23 03:59:51;;;;;;;21.38;18.10;;;17.70;49.80;;;;;;4967163;28;98738;-70
2022/03/23 04:02:17;;;;;;;20.98;17.48;;;17.70;49.80;;;;;;4968255;28;98939;-69
2022/03/23 04:04:42;;;;;;;18.70;16.70;;;17.70;49.80;;;;;;4967919;28;100190;-70
2022/03/23 04:07:09;;;;;;;19.33;17.25;;;17.70;49.80;;;;;;4967371;28;100124;-70
2022/03/23 04:09:34;;;;;;;20.40;17.48;;;17.70;49.80;;;;;;4968226;28;98543;-70
2022/03/23 04:12:00;;;;;;;21.17;18.05;;;17.70;49.80;;;;;;4968033;28;98583;-70
2022/03/23 04:14:25;;;;;;;22.00;17.92;;;17.70;49.80;;;;;;4966544;28;101235;-70
2022/03/23 04:16:51;;;;;;;20.42;17.08;;;17.70;49.70;;;;;;4967443;28;99955;-71
2022/03/23 04:19:16;;;;;;;20.90;17.77;;;17.70;49.70;;;;;;4965514;28;99525;-70
2022/03/23 04:21:42;;;;;;;19.48;16.98;;;17.70;49.70;;;;;;4967786;28;98999;-70
2022/03/23 04:24:08;;;;;;;21.05;17.23;;;17.70;49.80;;;;;;4967095;28;100049;-70
2022/03/23 04:26:34;;;;;;;20.33;17.33;;;17.60;49.60;;;;;;4966224;28;99040;-70
2022/03/23 04:28:59;;;;;;;22.00;17.15;;;17.70;49.70;;;;;;4968168;28;98742;-70
2022/03/23 04:31:25;;;;;;;22.42;17.50;;;17.70;49.60;;;;;;4967377;28;98512;-70
2022/03/23 04:33:50;;;;;;;22.70;18.08;;;17.70;49.70;;;;;;4967476;28;99173;-72
2022/03/23 04:36:17;;;;;;;20.88;17.83;;;17.60;49.60;;;;;;4969718;28;101706;-73
2022/03/23 04:38:42;;;;;;;19.25;17.00;;;17.60;49.60;;;;;;4969737;28;98738;-73
2022/03/23 04:41:10;;;;;;;21.30;17.17;;;17.60;49.60;;;;;;4968956;28;99150;-73
2022/03/23 04:43:38;;;;;;;18.73;16.27;;;17.60;49.50;;;;;;4968154;28;99798;-73
2022/03/23 04:46:05;;;;;;;20.30;16.90;;;17.60;49.50;;;;;;4967317;28;100931;-72
2022/03/23 04:48:31;;;;;;;22.85;18.38;;;17.60;49.50;;;;;;4967456;28;98583;-72
2022/03/23 04:50:56;;;;;;;21.85;16.90;;;17.60;49.50;;;;;;4967018;28;99171;-72
2022/03/23 04:53:22;;;;;;;20.58;17.85;;;17.60;49.50;;;;;;4966760;28;99164;-72
2022/03/23 04:55:47;;;;;;;20.85;17.73;;;17.60;49.40;;;;;;4966314;28;98826;-71
2022/03/23 04:58:13;;;;;;;20.67;17.90;;;17.60;49.50;;;;;;4966335;28;99005;-73
2022/03/23 05:00:40;;;;;;;22.50;17.10;;;17.60;49.40;;;;;;4950452;28;98386;-72
2022/03/23 05:03:05;;;;;;;21.27;17.10;;;17.50;49.40;;;;;;4966648;28;100336;-72
2022/03/23 05:05:31;;;;;;;21.75;17.75;;;17.50;49.40;;;;;;4966643;28;99057;-72
2022/03/23 05:07:57;;;;;;;21.13;17.52;;;17.50;49.30;;;;;;4966719;28;99309;-72
2022/03/23 05:10:22;;;;;;;21.45;17.20;;;17.50;49.30;;;;;;4966080;28;98885;-73
2022/03/23 05:12:49;;;;;;;21.85;17.10;;;17.50;49.30;;;;;;4966855;28;99018;-72
2022/03/23 05:15:16;;;;;;;20.42;17.50;;;17.50;49.30;;;;;;4966212;28;100655;-72
2022/03/23 06:18:42;;;;;;;19.42;16.60;;;17.90;48.40;;;;;;5124767;22;105081;-71
2022/03/23 06:21:08;;;;;;;19.15;15.95;;;18.00;48.10;;;;;;4973540;28;100116;-72
2022/03/23 06:23:34;;;;;;;20.35;16.80;;;18.10;47.90;;;;;;4971423;28;100068;-73
2022/03/23 06:26:01;;;;;;;20.08;15.57;;;18.20;47.80;;;;;;4969836;28;98540;-73
2022/03/23 06:28:27;;;;;;;21.38;17.05;;;18.30;47.60;;;;;;4970429;28;99020;-73
2022/03/23 06:30:53;;;;;;;25.13;17.83;;;18.40;47.50;;;;;;4969295;28;100900;-72
2022/03/23 06:33:20;;;;;;;23.65;17.38;;;18.40;47.30;;;;;;4970276;28;100598;-70
2022/03/23 06:35:46;;;;;;;24.30;16.88;;;18.50;47.10;;;;;;4969950;28;99011;-70
2022/03/23 06:38:13;;;;;;;24.05;17.55;;;18.50;47.10;;;;;;4970113;28;98566;-70
2022/03/23 06:40:39;;;;;;;19.83;16.05;;;18.60;47.10;;;;;;4970091;28;99207;-70
2022/03/23 06:43:05;;;;;;;21.38;15.93;;;18.60;47.10;;;;;;4969404;28;100040;-71
2022/03/23 06:45:30;;;;;;;21.52;16.50;;;18.60;47.10;;;;;;4970110;28;99294;-71
2022/03/23 06:47:56;;;;;;;22.33;16.45;;;18.60;47.30;;;;;;4969654;28;97806;-70
2022/03/23 06:50:22;;;;;;;23.35;16.23;;;18.60;47.20;;;;;;4969598;28;99207;-74
2022/03/23 06:52:48;;;;;;;22.55;16.45;;;18.60;47.30;;;;;;4970666;28;99326;-71
2022/03/23 06:55:13;;;;;;;24.63;16.45;;;18.60;47.30;;;;;;4968446;28;99411;-73
2022/03/23 06:57:39;;;;;;;21.42;16.55;;;18.60;47.40;;;;;;4969334;28;99164;-72
2022/03/23 07:00:13;;;;;;;19.63;15.57;;;18.60;47.30;;;;;;4968352;28;98999;-73
2022/03/23 07:02:49;;;;;;;21.70;16.50;;;18.60;47.50;;;;;;4969277;28;100177;-73
2022/03/23 07:05:17;;;;;;;21.63;16.15;;;18.50;47.40;;;;;;4969172;28;99471;-72
2022/03/23 07:10:27;;;;;;;19.30;16.08;;;18.50;47.50;;;;;;4968355;28;98789;-73
2022/03/23 07:12:53;;;;;;;23.77;16.02;;;18.50;47.60;;;;;;4969823;28;100939;-72
2022/03/23 07:15:19;;;;;;;22.70;16.13;;;18.40;47.60;;;;;;4969379;28;98533;-73
2022/03/23 07:17:44;;;;;;;22.02;15.70;;;18.40;47.60;;;;;;4969421;28;99711;-73
2022/03/23 07:20:10;;;;;;;21.23;16.35;;;18.40;47.60;;;;;;4939315;28;101972;-72
2022/03/23 07:22:36;;;;;;;20.83;16.73;;;18.40;47.60;;;;;;4949096;28;99697;-73
2022/03/23 07:25:02;;;;;;;20.92;15.90;;;18.40;47.60;;;;;;4950676;28;98740;-74
2022/03/23 07:27:28;;;;;;;21.55;15.85;;;18.40;47.70;;;;;;4949970;28;98931;-73
2022/03/23 07:29:55;;;;;;;19.20;16.08;;;18.40;47.80;;;;;;4950422;28;99133;-73
2022/03/23 07:32:20;;;;;;;22.67;15.80;;;18.40;48.70;;;;;;4948862;28;98928;-72
2022/03/23 07:34:46;;;;;;;22.20;16.45;;;18.30;47.80;;;;;;4950074;28;98589;-72
2022/03/23 07:37:12;;;;;;;19.15;15.70;;;18.30;47.80;;;;;;4949254;28;97898;-72
2022/03/23 07:39:37;;;;;;;19.35;15.45;;;18.30;47.90;;;;;;4948613;28;100117;-72
2022/03/23 07:42:03;;;;;;;20.33;16.23;;;18.30;47.90;;;;;;4948997;28;100226;-72
2022/03/23 07:44:32;;;;;;;22.73;17.35;;;18.30;47.90;;;;;;4947340;28;99668;-72
2022/03/23 07:46:58;;;;;;;20.92;15.80;;;18.30;47.90;;;;;;4948938;28;99130;-72
2022/03/23 07:49:24;;;;;;;21.52;16.92;;;18.20;47.90;;;;;;4948136;28;100257;-72
2022/03/23 07:51:49;;;;;;;21.27;16.52;;;18.20;48.00;;;;;;4947345;28;100333;-72
2022/03/23 07:54:15;;;;;;;21.38;15.32;;;18.20;48.00;;;;;;4948012;28;98644;-72
2022/03/23 07:56:41;;;;;;;21.67;15.85;;;18.20;48.00;;;;;;4947842;28;98974;-72
2022/03/23 07:59:06;;;;;;;20.65;16.50;;;18.20;48.00;;;;;;4950324;28;103630;-72
2022/03/23 08:01:33;;;;;;;20.35;15.77;;;18.20;48.00;;;;;;4952465;28;98719;-72
2022/03/23 08:03:59;;;;;;;22.50;16.10;;;18.20;48.10;;;;;;4958127;28;98698;-73
2022/03/23 08:06:26;;;;;;;19.98;15.48;;;18.20;48.00;;;;;;4947817;28;99151;-72
2022/03/23 08:08:52;;;;;;;21.98;16.65;;;18.20;48.20;;;;;;4948006;28;100795;-72
2022/03/23 08:11:17;;;;;;;21.23;16.67;;;18.10;48.20;;;;;;4947670;28;100739;-72
2022/03/23 08:13:43;;;;;;;19.35;15.55;;;18.10;48.10;;;;;;4947560;28;98691;-73
2022/03/23 08:16:09;;;;;;;21.13;16.95;;;18.10;48.10;;;;;;4947984;28;98915;-72
2022/03/23 08:18:35;;;;;;;21.23;16.40;;;18.10;48.10;;;;;;4947680;28;101148;-73
2022/03/23 08:21:01;;;;;;;20.15;16.52;;;18.10;48.10;;;;;;4965414;28;99126;-72
2022/03/23 08:23:29;;;;;;;22.48;16.73;;;18.10;48.20;;;;;;4967523;28;99093;-72
2022/03/23 08:25:55;;;;;;;21.17;16.55;;;18.10;48.20;;;;;;4967685;28;98292;-72
2022/03/23 08:28:21;;;;;;;24.73;17.05;;;18.10;48.20;;;;;;4967022;28;100182;-73
2022/03/23 08:30:46;;;;;;;19.92;16.60;;;18.10;48.20;;;;;;4949069;28;100360;-72
2022/03/23 08:33:12;;;;;;;21.42;15.77;;;18.10;48.20;;;;;;4967398;28;99349;-71
2022/03/23 08:35:39;;;;;;;22.08;16.05;;;18.10;48.20;;;;;;4966810;28;99063;-73
2022/03/23 08:38:06;;;;;;;20.88;16.60;;;18.10;48.30;;;;;;4966801;28;99112;-73
2022/03/23 08:40:32;;;;;;;21.50;15.75;;;18.10;48.40;;;;;;4966428;28;100267;-74
2022/03/23 08:42:58;;;;;;;19.50;16.52;;;18.00;48.30;;;;;;4967918;28;98948;-73
2022/03/23 08:45:24;;;;;;;20.02;15.55;;;18.00;48.30;;;;;;4966813;28;98726;-72
2022/03/23 08:47:50;;;;;;;19.52;15.43;;;18.00;48.30;;;;;;4965596;28;101185;-73
2022/03/23 08:50:17;;;;;;;20.35;16.17;;;18.00;48.30;;;;;;4967218;28;98794;-72
2022/03/23 08:52:42;;;;;;;21.05;16.08;;;18.00;48.40;;;;;;4966523;28;98762;-73
2022/03/23 08:55:13;;;;;;;20.27;15.45;;;18.00;48.50;;;;;;4967324;28;98862;-73
2022/03/23 08:57:39;;;;;;;18.20;14.95;;;18.00;48.40;;;;;;4964608;28;101431;-73
2022/03/23 09:00:06;;;;;;;18.70;15.25;;;18.00;48.40;;;;;;4966649;28;100699;-72
2022/03/23 09:02:32;;;;;;;20.45;14.73;;;18.00;48.50;;;;;;4966508;28;98592;-71
2022/03/23 09:04:57;;;;;;;18.58;15.20;;;18.00;48.40;;;;;;4967455;28;98869;-72
2022/03/23 09:07:23;;;;;;;18.45;14.50;;;18.00;48.30;;;;;;4948873;28;99403;-72
2022/03/23 09:09:50;;;;;;;20.33;15.00;;;18.00;48.30;;;;;;4965770;28;110384;-73
2022/03/23 09:12:16;;;;;;;18.33;14.88;;;18.00;48.30;;;;;;4966048;28;98702;-73
2022/03/23 09:14:42;;;;;;;20.17;14.75;;;18.00;48.20;;;;;;4967452;28;98582;-73
2022/03/23 09:17:08;;;;;;;19.83;15.20;;;18.10;48.30;;;;;;4966263;28;99150;-73
2022/03/23 09:19:34;;;;;;;17.48;14.52;;;18.10;48.20;;;;;;4965323;28;100358;-73
2022/03/23 09:21:59;;;;;;;16.88;14.68;;;18.10;48.20;;;;;;4968627;28;99298;-73
2022/03/23 09:24:29;;;;;;;18.23;14.55;;;18.10;48.20;;;;;;4970201;28;98591;-72
2022/03/23 09:26:55;;;;;;;18.63;15.50;;;18.10;48.20;;;;;;4970333;28;101697;-73
2022/03/23 09:29:22;;;;;;;17.63;13.48;;;18.10;48.20;;;;;;4968219;28;99456;-72
2022/03/23 09:31:48;;;;;;;18.02;14.10;;;18.10;48.20;;;;;;4970477;28;98504;-72
2022/03/23 09:34:14;;;;;;;17.40;14.02;;;18.10;48.10;;;;;;4969567;28;98594;-73
2022/03/23 09:39:24;;;;;;;16.90;14.48;;;18.10;48.00;;;;;;4969666;28;98463;-72
2022/03/23 09:41:51;;;;;;;17.02;13.25;;;18.10;48.00;;;;;;4969967;28;102116;-72
2022/03/23 09:44:17;;;;;;;17.40;14.10;;;18.10;48.00;;;;;;4971317;28;98880;-72
2022/03/23 09:46:43;;;;;;;16.60;13.10;;;18.20;48.00;;;;;;4973420;28;101307;-72
2022/03/23 09:49:15;;;;;;;15.45;12.93;;;18.20;48.00;;;;;;4973384;28;101406;-72
2022/03/23 09:51:42;;;;;;;18.23;14.05;;;18.20;48.00;;;;;;4973781;28;99045;-72
2022/03/23 09:54:08;;;;;;;16.52;12.68;;;18.20;48.00;;;;;;4970775;28;99069;-72
2022/03/23 09:56:34;;;;;;;15.80;13.18;;;18.20;48.00;;;;;;4968788;28;100411;-72
2022/03/23 09:59:06;;;;;;;15.95;13.02;;;18.20;48.00;;;;;;4952125;28;101999;-72
2022/03/23 10:01:57;;;;;;;14.63;12.53;;;18.20;48.00;;;;;;4969714;28;98809;-72
2022/03/23 10:04:51;;;;;;;15.48;12.57;;;18.20;48.00;;;;;;4970978;28;112427;-72
2022/03/23 10:07:45;;;;;;;14.27;11.82;;;18.30;48.10;;;;;;4968724;28;99843;-72
2022/03/23 10:10:30;;;;;;;14.18;11.93;;;18.20;48.00;;;;;;4969837;28;99138;-71
2022/03/23 10:13:17;;;;;;;14.43;11.93;;;18.30;48.10;;;;;;4970891;28;99629;-71
2022/03/23 10:16:20;;;;;;;14.07;12.43;;;18.30;48.00;;;;;;4970716;28;99050;-72
2022/03/23 10:18:51;;;;;;;14.52;11.48;;;18.30;47.90;;;;;;4969082;28;100345;-72
2022/03/23 10:21:22;;;;;;;13.60;11.85;;;18.30;48.00;;;;;;4949001;28;99145;-72
2022/03/23 10:24:00;;;;;;;15.68;11.85;;;18.30;48.00;;;;;;4950024;28;98631;-72
2022/03/23 10:26:27;;;;;;;13.43;12.02;;;18.30;47.90;;;;;;4949844;28;99216;-72
2022/03/23 10:28:53;;;;;;;14.27;11.23;;;18.30;47.90;;;;;;4949628;28;100312;-72
2022/03/23 10:31:24;;;;;;;13.70;11.18;;;18.40;48.00;;;;;;4950118;28;99264;-72
2022/03/23 10:34:08;;;;;;;15.55;11.70;;;18.40;47.90;;;;;;4949879;28;98564;-72
2022/03/23 10:36:43;;;;;;;15.18;11.88;;;18.40;48.00;;;;;;4949485;28;98551;-71
2022/03/23 10:39:11;;;;;;;13.45;11.32;;;18.40;48.00;;;;;;4947938;28;101017;-73
2022/03/23 10:41:37;;;;;;;12.95;10.75;;;18.40;48.00;;;;;;4930668;28;100689;-72
2022/03/23 10:44:03;;;;;;;13.50;11.55;;;18.40;47.90;;;;;;4950253;28;98961;-72
2022/03/23 10:46:29;;;;;;;12.43;10.77;;;18.40;47.90;;;;;;4949735;28;99056;-72
2022/03/23 10:49:03;;;;;;;13.27;10.85;;;18.40;47.80;;;;;;4949277;28;99238;-72
2022/03/23 10:51:34;;;;;;;12.68;10.43;;;18.40;47.80;;;;;;4948435;28;100095;-72
2022/03/23 10:54:17;;;;;;;13.45;11.05;;;18.40;47.80;;;;;;4931994;28;98797;-72
2022/03/23 10:56:43;;;;;;;12.30;10.55;;;18.40;47.80;;;;;;4950207;28;97839;-72
2022/03/23 10:59:23;;;;;;;12.73;10.88;;;18.40;47.80;;;;;;4948792;28;99288;-72
2022/03/23 11:01:57;;;;;;;11.30;10.10;;;18.50;47.80;;;;;;4948674;28;100631;-72
2022/03/23 11:04:28;;;;;;;12.85;10.25;;;18.40;47.70;;;;;;4949804;28;99921;-73
2022/03/23 11:06:54;;;;;;;12.10;10.05;;;18.50;47.90;;;;;;4949486;28;98616;-72
2022/03/23 11:18:12;;;;;;;10.80;9.50;;;18.50;47.90;;;;;;4948174;28;98622;-70
2022/03/23 11:20:47;;;;;;;11.55;9.95;;;18.50;47.90;;;;;;4963693;28;99076;-72
2022/03/23 11:23:33;;;;;;;12.57;9.70;;;18.50;47.80;;;;;;4968907;28;99098;-72
2022/03/23 11:26:07;;;;;;;11.38;9.70;;;18.50;47.90;;;;;;4970227;28;98911;-73
2022/03/23 11:28:36;;;;;;;10.45;9.27;;;18.50;47.90;;;;;;4970287;28;98953;-72
2022/03/23 11:31:04;;;;;;;11.68;9.63;;;18.50;47.90;;;;;;4973056;28;100959;-72
2022/03/23 11:33:34;;;;;;;10.63;9.25;;;18.50;47.80;;;;;;4968753;28;100635;-72
2022/03/23 11:36:05;;;;;;;10.70;9.60;;;18.50;47.80;;;;;;4969802;28;98521;-72
2022/03/23 11:38:33;;;;;;;9.77;8.73;;;18.50;47.90;;;;;;4969049;28;98636;-72
2022/03/23 11:41:00;;;;;;;10.18;9.05;;;18.50;47.80;;;;;;4968379;28;100286;-72
2022/03/23 11:43:29;;;;;;;10.18;9.10;;;18.50;47.80;;;;;;4967795;28;99183;-71
2022/03/23 11:45:57;;;;;;;9.38;8.48;;;18.50;47.90;;;;;;4968207;28;98934;-72
2022/03/23 11:49:00;;;;;;;9.98;8.98;;;18.50;47.90;;;;;;4969298;28;97963;-72
2022/03/23 11:51:54;;;;;;;10.93;9.52;;;18.50;47.90;;;;;;4901969;28;100363;-72
2022/03/23 11:57:48;;;;;;;9.73;8.60;;;18.50;47.90;;;;;;4947541;28;99322;-72
2022/03/23 12:00:18;;;;;;;10.32;8.98;;;18.50;47.90;;;;;;4969122;28;98575;-72
2022/03/23 12:02:44;;;;;;;9.02;8.13;;;18.50;48.00;;;;;;4968031;28;99205;-72
2022/03/23 12:05:31;;;;;;;9.93;8.60;;;18.50;47.90;;;;;;4968741;28;98911;-72
2022/03/23 12:07:58;;;;;;;8.85;7.95;;;18.50;47.90;;;;;;4969263;28;98467;-73
2022/03/23 12:10:30;;;;;;;8.80;7.90;;;18.50;48.00;;;;;;4968962;28;100220;-72
2022/03/23 12:13:12;;;;;;;8.80;7.80;;;18.60;48.00;;;;;;4969118;28;100277;-72
2022/03/23 12:15:58;;;;;;;8.93;8.02;;;18.60;48.00;;;;;;4968648;28;99035;-72
2022/03/23 12:18:39;;;;;;;8.63;7.82;;;18.60;48.00;;;;;;4968099;28;99295;-72
2022/03/23 12:21:09;;;;;;;9.20;8.07;;;18.60;48.00;;;;;;4968500;28;98660;-73
2022/03/23 12:23:51;;;;;;;10.40;8.25;;;18.60;48.50;;;;;;4966870;28;101382;-73
2022/03/23 12:26:37;;;;;;;10.73;8.02;;;18.50;48.00;;;;;;4967748;28;99741;-73
2022/03/23 12:29:15;;;;;;;10.02;8.43;;;18.60;48.00;;;;;;4968919;28;99257;-72
2022/03/23 12:31:41;;;;;;;8.27;7.22;;;18.60;48.10;;;;;;4968374;28;98684;-72
2022/03/23 12:34:20;;;;;;;8.05;7.25;;;18.60;48.10;;;;;;4968355;28;100146;-73
2022/03/23 12:36:56;;;;;;;8.07;7.28;;;18.60;48.10;;;;;;4967843;28;98779;-72
2022/03/23 12:39:37;;;;;;;8.07;7.28;;;18.60;48.10;;;;;;4968272;28;99081;-72
2022/03/23 12:42:12;;;;;;;8.23;7.43;;;18.60;48.10;;;;;;4968951;28;97804;-73
2022/03/23 12:44:40;;;;;;;7.80;7.00;;;18.60;48.10;;;;;;4967973;28;100259;-72
2022/03/23 12:47:07;;;;;;;8.93;7.38;;;18.60;48.10;;;;;;4968085;28;98934;-71
2022/03/23 12:58:05;;;;;;;9.20;7.55;;;18.60;48.10;;;;;;4966811;28;98642;-73
2022/03/23 13:00:33;;;;;;;7.45;6.75;;;18.60;48.20;;;;;;4968111;28;99062;-73
2022/03/23 13:03:22;;;;;;;7.82;6.68;;;18.60;48.20;;;;;;4967534;28;99069;-72
2022/03/23 13:06:00;;;;;;;9.05;7.40;;;18.60;48.10;;;;;;4950466;28;101530;-72
2022/03/23 13:08:33;;;;;;;7.78;6.97;;;18.60;48.10;;;;;;4966774;28;99952;-72
2022/03/23 13:11:07;;;;;;;7.45;6.70;;;18.60;48.10;;;;;;4967688;28;99271;-72
2022/03/23 13:13:37;;;;;;;9.52;7.22;;;18.60;48.10;;;;;;4971367;28;98768;-72
2022/03/23 13:16:15;;;;;;;7.80;6.63;;;18.70;48.20;;;;;;4970365;28;100950;-72
2022/03/23 13:18:42;;;;;;;7.60;6.75;;;18.70;48.10;;;;;;4968431;28;99116;-72
2022/03/23 13:21:10;;;;;;;7.50;6.70;;;18.70;48.10;;;;;;4967817;28;98989;-72
2022/03/23 13:23:40;;;;;;;7.15;6.45;;;18.70;48.10;;;;;;4967946;28;98779;-73
2022/03/23 13:26:17;;;;;;;10.48;6.60;;;18.70;48.10;;;;;;4966501;28;100063;-73
2022/03/23 13:28:47;;;;;;;7.90;6.28;;;18.70;48.00;;;;;;4967786;28;100100;-72
2022/03/23 13:31:13;;;;;;;8.13;7.07;;;18.70;48.00;;;;;;4967256;28;98925;-72
2022/03/23 13:33:43;;;;;;;7.30;6.45;;;18.70;48.00;;;;;;4968457;28;98138;-73
2022/03/23 13:36:11;;;;;;;7.07;6.38;;;18.70;48.00;;;;;;4966985;28;99110;-73
2022/03/23 13:38:39;;;;;;;9.15;6.07;;;18.70;47.90;;;;;;4967309;28;99775;-73
2022/03/23 13:43:52;;;;;;;6.80;6.10;;;18.80;47.90;;;;;;4968128;28;98568;-72
2022/03/23 13:46:19;;;;;;;8.30;5.93;;;18.70;47.80;;;;;;4966243;28;100135;-73
2022/03/23 13:48:59;;;;;;;6.20;5.60;;;18.80;47.90;;;;;;4966033;28;99098;-73
2022/03/23 13:51:42;;;;;;;8.43;6.47;;;18.80;47.90;;;;;;4967606;28;99125;-73
2022/03/23 13:54:10;;;;;;;6.38;5.60;;;18.80;47.90;;;;;;4967860;28;98685;-73
2022/03/23 13:56:38;;;;;;;6.95;5.60;;;18.80;48.10;;;;;;4967256;28;99307;-72
2022/03/23 13:59:06;;;;;;;7.90;5.80;;;18.80;47.90;;;;;;4967714;28;98923;-73
2022/03/23 14:01:42;;;;;;;6.30;5.70;;;18.90;48.00;;;;;;4967920;28;98787;-73
2022/03/23 14:04:09;;;;;;;7.35;5.70;;;18.90;48.00;;;;;;4967679;28;99522;-72
2022/03/23 14:06:43;;;;;;;6.78;5.97;;;18.90;48.00;;;;;;4966763;28;102007;-73
2022/03/23 14:09:09;;;;;;;7.43;5.88;;;18.90;48.00;;;;;;4969669;28;100795;-73
2022/03/23 14:11:47;;;;;;;7.35;5.75;;;18.90;47.90;;;;;;4970602;28;99906;-71
2022/03/23 14:14:14;;;;;;;7.20;5.93;;;19.00;48.00;;;;;;4970773;28;98674;-73
2022/03/23 14:16:40;;;;;;;6.25;5.60;;;19.00;47.90;;;;;;4969976;28;99760;-72